Hovedside
METAR-TAF:

METAR-TAF

Lufthavner :

Gran Canaria, Spania

Gran Canaria internasjonale lufthavn

breddegrad: 27-56N, lengdegrad: 015-23W, høyde over havet: 23 m

Gjeldene værobservasjon

Denne rapporten ble laget for 34 minutter siden, klokken 21:00 UTC
Vind 14 kt fra Nord, skiftende mellom Nord-nordvest og Nord-nordøst
Temperatur 18°C
Luftfuktighet 68%
Trykk 1022 hPa
Sikt 10 km eller mer
Få skyer i en høyde av 3000 ft
Brutte skyer i en høyde av 4500 ft

METAR: GCLP 182100Z 36014KT 330V030 9999 FEW030 BKN045 18/12 Q1022 NOSIG

Tid: 21:34 (21:34 UTC)

Varsel

Denne rapporten ble laget for 1 time og 34 minutter siden, klokken 20:00 UTC
Varsel gyldig fra 18. klokken 21 UTC til 19. klokken 21 UTC
Vind 15 kt fra Nord
Sikt 10 km eller mer
Spredte skyer i en høyde av 3000 ft
Sannsynlighet 40% :
Midlertidig
fra 18. klokken 21 UTC til 19. klokken 21 UTC
Vind 15 kt fra Nord med vindkast opp mot 25 kt

TAF: GCLP 182000Z 1821/1921 36015KT 9999 SCT030 TX22/1914Z TN16/1906Z PROB40 TEMPO 1821/1921 36015G25KT

Værobservasjoner og værvarsel for over 4000 flyplasser (METAR- og TAF-rapporter).

Tilgjengelige stasjoner er representert av de røde og gule prikkene på kartet.

Hold musepekeren over prikken for å se navnet på stasjonen.

Klikk så for å se værobservasjoner og -varsler.

For å forandre kartet kan du klikke på den grønne knappen med svart kryss for å zoome inn, på den grønne knappen med strek for å zoome ut, eller på de grønne pilene for å se tilstøtende kart.


METAR-TAF: